sensor_id;sensor_type;location;lat;lon;timestamp;pressure;altitude;pressure_sealevel;temperature
33267;BMP180;19638;49.080;11.896;2022-07-09T00:00:41;97380.00;;;14.10
33267;BMP180;19638;49.080;11.896;2022-07-09T00:04:42;97379.00;;;13.90
33267;BMP180;19638;49.080;11.896;2022-07-09T00:08:44;97381.00;;;13.80
33267;BMP180;19638;49.080;11.896;2022-07-09T00:12:44;97381.00;;;13.70
33267;BMP180;19638;49.080;11.896;2022-07-09T00:16:45;97377.00;;;13.60
33267;BMP180;19638;49.080;11.896;2022-07-09T00:20:46;97382.00;;;13.50
33267;BMP180;19638;49.080;11.896;2022-07-09T00:24:48;97373.00;;;13.50
33267;BMP180;19638;49.080;11.896;2022-07-09T00:28:48;97371.00;;;13.40
33267;BMP180;19638;49.080;11.896;2022-07-09T00:32:49;97365.00;;;13.40
33267;BMP180;19638;49.080;11.896;2022-07-09T00:36:50;97367.00;;;13.40
33267;BMP180;19638;49.080;11.896;2022-07-09T00:40:52;97357.00;;;13.30
33267;BMP180;19638;49.080;11.896;2022-07-09T00:44:52;97357.00;;;13.30
33267;BMP180;19638;49.080;11.896;2022-07-09T00:48:53;97364.00;;;13.30
33267;BMP180;19638;49.080;11.896;2022-07-09T00:52:53;97353.00;;;13.20
33267;BMP180;19638;49.080;11.896;2022-07-09T00:56:56;97353.00;;;13.10
33267;BMP180;19638;49.080;11.896;2022-07-09T01:00:56;97361.00;;;13.00
33267;BMP180;19638;49.080;11.896;2022-07-09T01:04:57;97353.00;;;13.00
33267;BMP180;19638;49.080;11.896;2022-07-09T01:13:33;97351.00;;;12.90
33267;BMP180;19638;49.080;11.896;2022-07-09T01:17:37;97351.00;;;12.90
33267;BMP180;19638;49.080;11.896;2022-07-09T01:22:10;97345.00;;;12.90
33267;BMP180;19638;49.080;11.896;2022-07-09T01:26:11;97340.00;;;12.80
33267;BMP180;19638;49.080;11.896;2022-07-09T01:30:23;97337.00;;;12.70
33267;BMP180;19638;49.080;11.896;2022-07-09T01:34:23;97342.00;;;12.60
33267;BMP180;19638;49.080;11.896;2022-07-09T01:38:25;97339.00;;;12.60
33267;BMP180;19638;49.080;11.896;2022-07-09T01:42:26;97337.00;;;12.50
33267;BMP180;19638;49.080;11.896;2022-07-09T01:46:26;97331.00;;;12.50
33267;BMP180;19638;49.080;11.896;2022-07-09T01:50:27;97330.00;;;12.50
33267;BMP180;19638;49.080;11.896;2022-07-09T01:54:29;97324.00;;;12.40
33267;BMP180;19638;49.080;11.896;2022-07-09T01:58:30;97327.00;;;12.40
33267;BMP180;19638;49.080;11.896;2022-07-09T02:02:30;97322.00;;;12.30
33267;BMP180;19638;49.080;11.896;2022-07-09T02:06:31;97321.00;;;12.40
33267;BMP180;19638;49.080;11.896;2022-07-09T02:10:33;97316.00;;;12.40
33267;BMP180;19638;49.080;11.896;2022-07-09T02:14:34;97317.00;;;12.60
33267;BMP180;19638;49.080;11.896;2022-07-09T02:18:35;97320.00;;;12.80
33267;BMP180;19638;49.080;11.896;2022-07-09T02:22:35;97308.00;;;13.00
33267;BMP180;19638;49.080;11.896;2022-07-09T02:26:37;97304.00;;;13.10
33267;BMP180;19638;49.080;11.896;2022-07-09T02:30:38;97307.00;;;13.20
33267;BMP180;19638;49.080;11.896;2022-07-09T02:34:39;97311.00;;;13.30
33267;BMP180;19638;49.080;11.896;2022-07-09T02:38:39;97321.00;;;13.40
33267;BMP180;19638;49.080;11.896;2022-07-09T02:43:15;97307.00;;;13.60
33267;BMP180;19638;49.080;11.896;2022-07-09T02:47:16;97314.00;;;13.80
33267;BMP180;19638;49.080;11.896;2022-07-09T02:51:17;97310.00;;;13.90
33267;BMP180;19638;49.080;11.896;2022-07-09T02:55:17;97312.00;;;14.10
33267;BMP180;19638;49.080;11.896;2022-07-09T02:59:19;97313.00;;;14.10
33267;BMP180;19638;49.080;11.896;2022-07-09T03:03:20;97314.00;;;14.10
33267;BMP180;19638;49.080;11.896;2022-07-09T03:07:21;97316.00;;;14.20
33267;BMP180;19638;49.080;11.896;2022-07-09T03:11:22;97321.00;;;14.30
33267;BMP180;19638;49.080;11.896;2022-07-09T03:15:24;97318.00;;;14.30
33267;BMP180;19638;49.080;11.896;2022-07-09T03:19:24;97316.00;;;14.30
33267;BMP180;19638;49.080;11.896;2022-07-09T03:23:25;97320.00;;;14.40
33267;BMP180;19638;49.080;11.896;2022-07-09T03:27:25;97320.00;;;14.40
33267;BMP180;19638;49.080;11.896;2022-07-09T03:31:27;97317.00;;;14.40
33267;BMP180;19638;49.080;11.896;2022-07-09T03:35:28;97310.00;;;14.40
33267;BMP180;19638;49.080;11.896;2022-07-09T03:39:29;97323.00;;;14.50
33267;BMP180;19638;49.080;11.896;2022-07-09T03:43:29;97322.00;;;14.50
33267;BMP180;19638;49.080;11.896;2022-07-09T03:47:31;97315.00;;;14.60
33267;BMP180;19638;49.080;11.896;2022-07-09T03:51:32;97316.00;;;14.70
33267;BMP180;19638;49.080;11.896;2022-07-09T03:55:33;97319.00;;;14.70
33267;BMP180;19638;49.080;11.896;2022-07-09T03:59:33;97318.00;;;14.80
33267;BMP180;19638;49.080;11.896;2022-07-09T04:03:35;97313.00;;;14.90
33267;BMP180;19638;49.080;11.896;2022-07-09T04:07:36;97325.00;;;14.90
33267;BMP180;19638;49.080;11.896;2022-07-09T04:11:36;97319.00;;;15.10
33267;BMP180;19638;49.080;11.896;2022-07-09T04:15:37;97327.00;;;15.10
33267;BMP180;19638;49.080;11.896;2022-07-09T04:19:39;97318.00;;;15.20
33267;BMP180;19638;49.080;11.896;2022-07-09T04:23:40;97312.00;;;15.30
33267;BMP180;19638;49.080;11.896;2022-07-09T04:27:40;97325.00;;;15.40
33267;BMP180;19638;49.080;11.896;2022-07-09T04:31:41;97318.00;;;15.50
33267;BMP180;19638;49.080;11.896;2022-07-09T04:35:43;97305.00;;;15.60
33267;BMP180;19638;49.080;11.896;2022-07-09T04:39:44;97316.00;;;15.70
33267;BMP180;19638;49.080;11.896;2022-07-09T04:43:44;97323.00;;;15.80
33267;BMP180;19638;49.080;11.896;2022-07-09T04:47:45;97323.00;;;15.90
33267;BMP180;19638;49.080;11.896;2022-07-09T04:51:47;97315.00;;;16.00
33267;BMP180;19638;49.080;11.896;2022-07-09T04:55:48;97323.00;;;16.20
33267;BMP180;19638;49.080;11.896;2022-07-09T04:59:49;97324.00;;;16.40
33267;BMP180;19638;49.080;11.896;2022-07-09T05:03:49;97330.00;;;16.50
33267;BMP180;19638;49.080;11.896;2022-07-09T05:07:52;97330.00;;;16.70
33267;BMP180;19638;49.080;11.896;2022-07-09T05:11:53;97328.00;;;16.80
33267;BMP180;19638;49.080;11.896;2022-07-09T05:15:53;97331.00;;;16.90
33267;BMP180;19638;49.080;11.896;2022-07-09T05:19:54;97325.00;;;17.10
33267;BMP180;19638;49.080;11.896;2022-07-09T05:23:56;97326.00;;;17.20
33267;BMP180;19638;49.080;11.896;2022-07-09T05:27:56;97329.00;;;17.30
33267;BMP180;19638;49.080;11.896;2022-07-09T05:31:57;97324.00;;;17.40
33267;BMP180;19638;49.080;11.896;2022-07-09T05:35:58;97314.00;;;17.60
33267;BMP180;19638;49.080;11.896;2022-07-09T05:40:00;97314.00;;;17.80
33267;BMP180;19638;49.080;11.896;2022-07-09T05:44:00;97320.00;;;18.00
33267;BMP180;19638;49.080;11.896;2022-07-09T05:48:01;97316.00;;;18.20
33267;BMP180;19638;49.080;11.896;2022-07-09T05:52:02;97313.00;;;18.50
33267;BMP180;19638;49.080;11.896;2022-07-09T05:56:04;97318.00;;;18.80
33267;BMP180;19638;49.080;11.896;2022-07-09T06:00:06;97322.00;;;19.20
33267;BMP180;19638;49.080;11.896;2022-07-09T06:04:07;97313.00;;;19.50
33267;BMP180;19638;49.080;11.896;2022-07-09T06:08:07;97320.00;;;20.10
33267;BMP180;19638;49.080;11.896;2022-07-09T06:12:10;97317.00;;;21.30
33267;BMP180;19638;49.080;11.896;2022-07-09T06:16:10;97321.00;;;22.60
33267;BMP180;19638;49.080;11.896;2022-07-09T06:20:11;97319.00;;;23.60
33267;BMP180;19638;49.080;11.896;2022-07-09T06:24:37;97316.00;;;23.10
33267;BMP180;19638;49.080;11.896;2022-07-09T06:28:39;97314.00;;;23.30
33267;BMP180;19638;49.080;11.896;2022-07-09T06:32:40;97311.00;;;23.60
33267;BMP180;19638;49.080;11.896;2022-07-09T06:36:40;97322.00;;;24.00
33267;BMP180;19638;49.080;11.896;2022-07-09T06:40:41;97312.00;;;24.50
33267;BMP180;19638;49.080;11.896;2022-07-09T06:44:43;97304.00;;;24.60
33267;BMP180;19638;49.080;11.896;2022-07-09T06:48:44;97310.00;;;24.80
33267;BMP180;19638;49.080;11.896;2022-07-09T06:52:45;97307.00;;;25.00
33267;BMP180;19638;49.080;11.896;2022-07-09T06:56:45;97299.00;;;25.30
33267;BMP180;19638;49.080;11.896;2022-07-09T07:00:47;97307.00;;;24.90
33267;BMP180;19638;49.080;11.896;2022-07-09T07:04:48;97310.00;;;25.10
33267;BMP180;19638;49.080;11.896;2022-07-09T07:08:49;97307.00;;;25.20
33267;BMP180;19638;49.080;11.896;2022-07-09T07:12:49;97310.00;;;25.10
33267;BMP180;19638;49.080;11.896;2022-07-09T07:16:51;97315.00;;;25.50
33267;BMP180;19638;49.080;11.896;2022-07-09T07:20:52;97309.00;;;25.40
33267;BMP180;19638;49.080;11.896;2022-07-09T07:24:53;97312.00;;;25.60
33267;BMP180;19638;49.080;11.896;2022-07-09T07:28:54;97307.00;;;25.40
33267;BMP180;19638;49.080;11.896;2022-07-09T07:32:56;97303.00;;;24.90
33267;BMP180;19638;49.080;11.896;2022-07-09T07:36:56;97313.00;;;24.60
33267;BMP180;19638;49.080;11.896;2022-07-09T07:40:57;97301.00;;;24.40
33267;BMP180;19638;49.080;11.896;2022-07-09T07:44:58;97296.00;;;24.50
33267;BMP180;19638;49.080;11.896;2022-07-09T07:49:00;97300.00;;;24.70
33267;BMP180;19638;49.080;11.896;2022-07-09T07:53:00;97307.00;;;24.90
33267;BMP180;19638;49.080;11.896;2022-07-09T07:57:01;97309.00;;;25.20
33267;BMP180;19638;49.080;11.896;2022-07-09T08:01:02;97310.00;;;25.40
33267;BMP180;19638;49.080;11.896;2022-07-09T08:05:05;97314.00;;;25.50
33267;BMP180;19638;49.080;11.896;2022-07-09T08:09:06;97303.00;;;25.80
33267;BMP180;19638;49.080;11.896;2022-07-09T08:13:07;97305.00;;;26.20
33267;BMP180;19638;49.080;11.896;2022-07-09T08:17:07;97308.00;;;26.20
33267;BMP180;19638;49.080;11.896;2022-07-09T08:21:09;97297.00;;;25.70
33267;BMP180;19638;49.080;11.896;2022-07-09T08:25:10;97304.00;;;25.20
33267;BMP180;19638;49.080;11.896;2022-07-09T08:29:11;97300.00;;;25.00
33267;BMP180;19638;49.080;11.896;2022-07-09T08:33:11;97301.00;;;24.80
33267;BMP180;19638;49.080;11.896;2022-07-09T08:37:13;97302.00;;;24.70
33267;BMP180;19638;49.080;11.896;2022-07-09T08:41:14;97299.00;;;24.40
33267;BMP180;19638;49.080;11.896;2022-07-09T08:45:17;97302.00;;;24.40
33267;BMP180;19638;49.080;11.896;2022-07-09T08:49:18;97303.00;;;24.20
33267;BMP180;19638;49.080;11.896;2022-07-09T08:53:20;97295.00;;;24.10
33267;BMP180;19638;49.080;11.896;2022-07-09T08:57:21;97293.00;;;24.10
33267;BMP180;19638;49.080;11.896;2022-07-09T09:01:21;97292.00;;;24.30
33267;BMP180;19638;49.080;11.896;2022-07-09T09:05:22;97289.00;;;24.60
33267;BMP180;19638;49.080;11.896;2022-07-09T09:09:24;97289.00;;;24.80
33267;BMP180;19638;49.080;11.896;2022-07-09T09:13:25;97286.00;;;24.80
33267;BMP180;19638;49.080;11.896;2022-07-09T09:17:25;97282.00;;;24.90
33267;BMP180;19638;49.080;11.896;2022-07-09T09:21:27;97281.00;;;25.80
33267;BMP180;19638;49.080;11.896;2022-07-09T09:25:29;97275.00;;;27.00
33267;BMP180;19638;49.080;11.896;2022-07-09T09:29:30;97262.00;;;27.90
33267;BMP180;19638;49.080;11.896;2022-07-09T09:33:31;97259.00;;;29.00
33267;BMP180;19638;49.080;11.896;2022-07-09T09:37:32;97254.00;;;29.90
33267;BMP180;19638;49.080;11.896;2022-07-09T09:41:34;97243.00;;;30.90
33267;BMP180;19638;49.080;11.896;2022-07-09T09:45:35;97240.00;;;31.50
33267;BMP180;19638;49.080;11.896;2022-07-09T09:49:37;97225.00;;;31.60
33267;BMP180;19638;49.080;11.896;2022-07-09T09:53:38;97214.00;;;31.80
33267;BMP180;19638;49.080;11.896;2022-07-09T09:57:43;97211.00;;;31.40
33267;BMP180;19638;49.080;11.896;2022-07-09T10:01:44;97216.00;;;32.00
33267;BMP180;19638;49.080;11.896;2022-07-09T10:05:45;97223.00;;;32.60
33267;BMP180;19638;49.080;11.896;2022-07-09T10:09:52;97219.00;;;33.10
33267;BMP180;19638;49.080;11.896;2022-07-09T10:13:56;97207.00;;;31.60
33267;BMP180;19638;49.080;11.896;2022-07-09T10:17:57;97216.00;;;30.40
33267;BMP180;19638;49.080;11.896;2022-07-09T10:21:58;97217.00;;;29.80
33267;BMP180;19638;49.080;11.896;2022-07-09T10:25:59;97212.00;;;29.30
33267;BMP180;19638;49.080;11.896;2022-07-09T10:30:01;97205.00;;;28.70
33267;BMP180;19638;49.080;11.896;2022-07-09T10:34:06;97198.00;;;27.90
33267;BMP180;19638;49.080;11.896;2022-07-09T10:38:07;97211.00;;;27.40
33267;BMP180;19638;49.080;11.896;2022-07-09T10:42:21;97196.00;;;26.90
33267;BMP180;19638;49.080;11.896;2022-07-09T10:46:24;97201.00;;;26.90
33267;BMP180;19638;49.080;11.896;2022-07-09T10:50:27;97202.00;;;26.80
33267;BMP180;19638;49.080;11.896;2022-07-09T10:54:27;97197.00;;;26.90
33267;BMP180;19638;49.080;11.896;2022-07-09T10:58:28;97201.00;;;26.90
33267;BMP180;19638;49.080;11.896;2022-07-09T11:02:30;97199.00;;;26.90
33267;BMP180;19638;49.080;11.896;2022-07-09T11:06:31;97202.00;;;26.70
33267;BMP180;19638;49.080;11.896;2022-07-09T11:10:33;97196.00;;;26.50
33267;BMP180;19638;49.080;11.896;2022-07-09T11:14:43;97200.00;;;26.40
33267;BMP180;19638;49.080;11.896;2022-07-09T11:18:45;97190.00;;;26.40
33267;BMP180;19638;49.080;11.896;2022-07-09T11:22:46;97187.00;;;26.50
33267;BMP180;19638;49.080;11.896;2022-07-09T11:26:47;97179.00;;;27.00
33267;BMP180;19638;49.080;11.896;2022-07-09T11:30:58;97175.00;;;27.70
33267;BMP180;19638;49.080;11.896;2022-07-09T11:35:00;97171.00;;;28.50
33267;BMP180;19638;49.080;11.896;2022-07-09T11:39:01;97174.00;;;29.00
33267;BMP180;19638;49.080;11.896;2022-07-09T11:43:02;97177.00;;;28.80
33267;BMP180;19638;49.080;11.896;2022-07-09T11:47:04;97171.00;;;28.30
33267;BMP180;19638;49.080;11.896;2022-07-09T11:51:06;97164.00;;;27.80
33267;BMP180;19638;49.080;11.896;2022-07-09T11:55:08;97162.00;;;27.30
33267;BMP180;19638;49.080;11.896;2022-07-09T11:59:09;97163.00;;;26.90
33267;BMP180;19638;49.080;11.896;2022-07-09T12:03:10;97168.00;;;26.20
33267;BMP180;19638;49.080;11.896;2022-07-09T12:07:12;97162.00;;;25.70
33267;BMP180;19638;49.080;11.896;2022-07-09T12:11:13;97164.00;;;25.20
33267;BMP180;19638;49.080;11.896;2022-07-09T12:15:13;97155.00;;;24.80
33267;BMP180;19638;49.080;11.896;2022-07-09T12:19:14;97152.00;;;24.70
33267;BMP180;19638;49.080;11.896;2022-07-09T12:23:16;97152.00;;;24.80
33267;BMP180;19638;49.080;11.896;2022-07-09T12:27:17;97143.00;;;24.70
33267;BMP180;19638;49.080;11.896;2022-07-09T12:31:18;97137.00;;;24.90
33267;BMP180;19638;49.080;11.896;2022-07-09T12:35:18;97141.00;;;25.20
33267;BMP180;19638;49.080;11.896;2022-07-09T12:39:20;97134.00;;;25.30
33267;BMP180;19638;49.080;11.896;2022-07-09T12:43:21;97137.00;;;25.30
33267;BMP180;19638;49.080;11.896;2022-07-09T12:47:22;97127.00;;;25.00
33267;BMP180;19638;49.080;11.896;2022-07-09T12:51:23;97134.00;;;24.70
33267;BMP180;19638;49.080;11.896;2022-07-09T12:55:24;97123.00;;;24.40
33267;BMP180;19638;49.080;11.896;2022-07-09T12:59:25;97123.00;;;24.30
33267;BMP180;19638;49.080;11.896;2022-07-09T13:03:26;97127.00;;;24.20
33267;BMP180;19638;49.080;11.896;2022-07-09T13:07:26;97117.00;;;24.10
33267;BMP180;19638;49.080;11.896;2022-07-09T13:11:29;97116.00;;;24.20
33267;BMP180;19638;49.080;11.896;2022-07-09T13:15:29;97109.00;;;24.20
33267;BMP180;19638;49.080;11.896;2022-07-09T13:19:30;97114.00;;;24.20
33267;BMP180;19638;49.080;11.896;2022-07-09T13:23:31;97115.00;;;24.20
33267;BMP180;19638;49.080;11.896;2022-07-09T13:27:33;97104.00;;;24.40
33267;BMP180;19638;49.080;11.896;2022-07-09T13:31:34;97095.00;;;25.00
33267;BMP180;19638;49.080;11.896;2022-07-09T13:35:35;97105.00;;;25.60
33267;BMP180;19638;49.080;11.896;2022-07-09T13:39:36;97102.00;;;26.00
33267;BMP180;19638;49.080;11.896;2022-07-09T13:43:38;97093.00;;;26.70
33267;BMP180;19638;49.080;11.896;2022-07-09T13:47:38;97096.00;;;27.30
33267;BMP180;19638;49.080;11.896;2022-07-09T13:51:39;97086.00;;;27.40
33267;BMP180;19638;49.080;11.896;2022-07-09T13:55:40;97078.00;;;26.90
33267;BMP180;19638;49.080;11.896;2022-07-09T13:59:42;97074.00;;;26.80
33267;BMP180;19638;49.080;11.896;2022-07-09T14:03:42;97067.00;;;26.70
33267;BMP180;19638;49.080;11.896;2022-07-09T14:07:43;97062.00;;;26.50
33267;BMP180;19638;49.080;11.896;2022-07-09T14:11:44;97062.00;;;26.40
33267;BMP180;19638;49.080;11.896;2022-07-09T14:15:46;97049.00;;;26.90
33267;BMP180;19638;49.080;11.896;2022-07-09T14:19:47;97056.00;;;27.70
33267;BMP180;19638;49.080;11.896;2022-07-09T14:23:47;97044.00;;;27.50
33267;BMP180;19638;49.080;11.896;2022-07-09T14:27:48;97044.00;;;27.20
33267;BMP180;19638;49.080;11.896;2022-07-09T14:31:50;97037.00;;;27.10
33267;BMP180;19638;49.080;11.896;2022-07-09T14:35:51;97023.00;;;27.50
33267;BMP180;19638;49.080;11.896;2022-07-09T14:39:52;97038.00;;;27.40
33267;BMP180;19638;49.080;11.896;2022-07-09T14:43:52;97033.00;;;27.20
33267;BMP180;19638;49.080;11.896;2022-07-09T14:47:54;97025.00;;;27.40
33267;BMP180;19638;49.080;11.896;2022-07-09T14:51:55;97020.00;;;27.40
33267;BMP180;19638;49.080;11.896;2022-07-09T14:55:56;97023.00;;;27.80
33267;BMP180;19638;49.080;11.896;2022-07-09T14:59:56;97023.00;;;28.30
33267;BMP180;19638;49.080;11.896;2022-07-09T15:03:58;97003.00;;;28.30
33267;BMP180;19638;49.080;11.896;2022-07-09T15:07:59;97005.00;;;27.90
33267;BMP180;19638;49.080;11.896;2022-07-09T15:12:00;97006.00;;;27.70
33267;BMP180;19638;49.080;11.896;2022-07-09T15:16:00;97009.00;;;27.50
33267;BMP180;19638;49.080;11.896;2022-07-09T15:20:03;97002.00;;;27.10
33267;BMP180;19638;49.080;11.896;2022-07-09T15:24:04;96999.00;;;26.60
33267;BMP180;19638;49.080;11.896;2022-07-09T15:28:05;96986.00;;;26.00
33267;BMP180;19638;49.080;11.896;2022-07-09T15:32:07;96985.00;;;25.70
33267;BMP180;19638;49.080;11.896;2022-07-09T15:36:09;96980.00;;;25.40
33267;BMP180;19638;49.080;11.896;2022-07-09T15:40:10;96970.00;;;25.30
33267;BMP180;19638;49.080;11.896;2022-07-09T15:44:11;96966.00;;;25.40
33267;BMP180;19638;49.080;11.896;2022-07-09T15:48:12;96964.00;;;25.40
33267;BMP180;19638;49.080;11.896;2022-07-09T15:52:14;96960.00;;;25.30
33267;BMP180;19638;49.080;11.896;2022-07-09T15:56:15;96961.00;;;25.20
33267;BMP180;19638;49.080;11.896;2022-07-09T16:00:15;96958.00;;;25.20
33267;BMP180;19638;49.080;11.896;2022-07-09T16:04:16;96959.00;;;25.20
33267;BMP180;19638;49.080;11.896;2022-07-09T16:08:18;96948.00;;;25.40
33267;BMP180;19638;49.080;11.896;2022-07-09T16:12:19;96945.00;;;25.60
33267;BMP180;19638;49.080;11.896;2022-07-09T16:16:21;96944.00;;;25.70
33267;BMP180;19638;49.080;11.896;2022-07-09T16:20:22;96938.00;;;25.90
33267;BMP180;19638;49.080;11.896;2022-07-09T16:24:24;96945.00;;;25.80
33267;BMP180;19638;49.080;11.896;2022-07-09T16:28:24;96935.00;;;25.40
33267;BMP180;19638;49.080;11.896;2022-07-09T16:32:25;96946.00;;;25.10
33267;BMP180;19638;49.080;11.896;2022-07-09T16:36:25;96946.00;;;24.40
33267;BMP180;19638;49.080;11.896;2022-07-09T16:40:27;96941.00;;;24.20
33267;BMP180;19638;49.080;11.896;2022-07-09T16:44:28;96963.00;;;23.90
33267;BMP180;19638;49.080;11.896;2022-07-09T16:48:29;96980.00;;;22.70
33267;BMP180;19638;49.080;11.896;2022-07-09T16:52:29;96999.00;;;21.40
33267;BMP180;19638;49.080;11.896;2022-07-09T16:56:31;96982.00;;;20.10
33267;BMP180;19638;49.080;11.896;2022-07-09T17:00:32;96974.00;;;18.90
33267;BMP180;19638;49.080;11.896;2022-07-09T17:04:33;96954.00;;;18.20
33267;BMP180;19638;49.080;11.896;2022-07-09T17:08:34;96954.00;;;18.10
33267;BMP180;19638;49.080;11.896;2022-07-09T17:12:37;96946.00;;;17.90
33267;BMP180;19638;49.080;11.896;2022-07-09T17:16:38;96944.00;;;17.80
33267;BMP180;19638;49.080;11.896;2022-07-09T17:20:38;96935.00;;;17.80
33267;BMP180;19638;49.080;11.896;2022-07-09T17:24:39;96930.00;;;17.70
33267;BMP180;19638;49.080;11.896;2022-07-09T17:28:41;96928.00;;;17.60
33267;BMP180;19638;49.080;11.896;2022-07-09T17:32:43;96928.00;;;17.70
33267;BMP180;19638;49.080;11.896;2022-07-09T17:36:44;96932.00;;;17.60
33267;BMP180;19638;49.080;11.896;2022-07-09T17:40:45;96917.00;;;17.60
33267;BMP180;19638;49.080;11.896;2022-07-09T17:44:47;96908.00;;;17.60
33267;BMP180;19638;49.080;11.896;2022-07-09T17:48:48;96896.00;;;17.70
33267;BMP180;19638;49.080;11.896;2022-07-09T17:52:49;96893.00;;;17.90
33267;BMP180;19638;49.080;11.896;2022-07-09T17:56:50;96903.00;;;18.00
33267;BMP180;19638;49.080;11.896;2022-07-09T18:00:52;96906.00;;;18.10
33267;BMP180;19638;49.080;11.896;2022-07-09T18:04:53;96902.00;;;18.20
33267;BMP180;19638;49.080;11.896;2022-07-09T18:08:53;96890.00;;;18.20
33267;BMP180;19638;49.080;11.896;2022-07-09T18:12:54;96902.00;;;18.30
33267;BMP180;19638;49.080;11.896;2022-07-09T18:16:56;96901.00;;;18.40
33267;BMP180;19638;49.080;11.896;2022-07-09T18:20:56;96898.00;;;18.50
33267;BMP180;19638;49.080;11.896;2022-07-09T18:24:57;96904.00;;;18.50
33267;BMP180;19638;49.080;11.896;2022-07-09T18:28:58;96904.00;;;18.40
33267;BMP180;19638;49.080;11.896;2022-07-09T18:33:00;96907.00;;;18.40
33267;BMP180;19638;49.080;11.896;2022-07-09T18:37:01;96908.00;;;18.20
33267;BMP180;19638;49.080;11.896;2022-07-09T18:41:01;96898.00;;;18.20
33267;BMP180;19638;49.080;11.896;2022-07-09T18:45:02;96900.00;;;18.20
33267;BMP180;19638;49.080;11.896;2022-07-09T18:49:11;96894.00;;;18.20
33267;BMP180;19638;49.080;11.896;2022-07-09T18:53:12;96885.00;;;18.20
33267;BMP180;19638;49.080;11.896;2022-07-09T18:57:12;96884.00;;;18.20
33267;BMP180;19638;49.080;11.896;2022-07-09T19:01:13;96887.00;;;18.20
33267;BMP180;19638;49.080;11.896;2022-07-09T19:05:15;96893.00;;;18.10
33267;BMP180;19638;49.080;11.896;2022-07-09T19:09:16;96897.00;;;18.10
33267;BMP180;19638;49.080;11.896;2022-07-09T19:13:16;96891.00;;;18.10
33267;BMP180;19638;49.080;11.896;2022-07-09T19:17:17;96897.00;;;18.10
33267;BMP180;19638;49.080;11.896;2022-07-09T19:21:19;96899.00;;;18.00
33267;BMP180;19638;49.080;11.896;2022-07-09T19:25:20;96890.00;;;18.00
33267;BMP180;19638;49.080;11.896;2022-07-09T19:29:20;96892.00;;;18.00
33267;BMP180;19638;49.080;11.896;2022-07-09T19:33:21;96888.00;;;18.00
33267;BMP180;19638;49.080;11.896;2022-07-09T19:37:23;96888.00;;;17.90
33267;BMP180;19638;49.080;11.896;2022-07-09T19:41:24;96894.00;;;17.80
33267;BMP180;19638;49.080;11.896;2022-07-09T19:45:25;96892.00;;;17.80
33267;BMP180;19638;49.080;11.896;2022-07-09T19:49:25;96894.00;;;17.90
33267;BMP180;19638;49.080;11.896;2022-07-09T19:53:28;96898.00;;;17.80
33267;BMP180;19638;49.080;11.896;2022-07-09T19:57:28;96898.00;;;17.90
33267;BMP180;19638;49.080;11.896;2022-07-09T20:01:29;96893.00;;;17.90
33267;BMP180;19638;49.080;11.896;2022-07-09T20:05:30;96898.00;;;17.90
33267;BMP180;19638;49.080;11.896;2022-07-09T20:09:32;96899.00;;;17.90
33267;BMP180;19638;49.080;11.896;2022-07-09T20:13:32;96898.00;;;17.80
33267;BMP180;19638;49.080;11.896;2022-07-09T20:17:33;96903.00;;;17.80
33267;BMP180;19638;49.080;11.896;2022-07-09T20:21:34;96895.00;;;17.90
33267;BMP180;19638;49.080;11.896;2022-07-09T20:25:36;96894.00;;;17.90
33267;BMP180;19638;49.080;11.896;2022-07-09T20:29:36;96902.00;;;17.80
33267;BMP180;19638;49.080;11.896;2022-07-09T20:33:37;96902.00;;;17.90
33267;BMP180;19638;49.080;11.896;2022-07-09T20:37:38;96909.00;;;17.90
33267;BMP180;19638;49.080;11.896;2022-07-09T20:41:40;96904.00;;;17.90
33267;BMP180;19638;49.080;11.896;2022-07-09T20:45:41;96905.00;;;17.90
33267;BMP180;19638;49.080;11.896;2022-07-09T20:49:41;96897.00;;;17.90
33267;BMP180;19638;49.080;11.896;2022-07-09T20:53:42;96906.00;;;17.90
33267;BMP180;19638;49.080;11.896;2022-07-09T20:57:44;96904.00;;;18.00
33267;BMP180;19638;49.080;11.896;2022-07-09T21:01:45;96910.00;;;18.00
33267;BMP180;19638;49.080;11.896;2022-07-09T21:05:45;96904.00;;;18.00
33267;BMP180;19638;49.080;11.896;2022-07-09T21:09:46;96903.00;;;18.00
33267;BMP180;19638;49.080;11.896;2022-07-09T21:13:48;96906.00;;;18.00
33267;BMP180;19638;49.080;11.896;2022-07-09T21:17:49;96919.00;;;17.90
33267;BMP180;19638;49.080;11.896;2022-07-09T21:21:49;96917.00;;;17.90
33267;BMP180;19638;49.080;11.896;2022-07-09T21:25:50;96915.00;;;17.90
33267;BMP180;19638;49.080;11.896;2022-07-09T21:29:52;96914.00;;;17.90
33267;BMP180;19638;49.080;11.896;2022-07-09T21:33:53;96917.00;;;17.90
33267;BMP180;19638;49.080;11.896;2022-07-09T21:37:54;96914.00;;;17.90
33267;BMP180;19638;49.080;11.896;2022-07-09T21:41:54;96920.00;;;17.80
33267;BMP180;19638;49.080;11.896;2022-07-09T21:45:56;96904.00;;;17.70
33267;BMP180;19638;49.080;11.896;2022-07-09T21:49:57;96907.00;;;17.60
33267;BMP180;19638;49.080;11.896;2022-07-09T21:53:58;96910.00;;;17.50
33267;BMP180;19638;49.080;11.896;2022-07-09T21:57:58;96910.00;;;17.50
33267;BMP180;19638;49.080;11.896;2022-07-09T22:02:01;96908.00;;;17.40
33267;BMP180;19638;49.080;11.896;2022-07-09T22:06:01;96901.00;;;17.30
33267;BMP180;19638;49.080;11.896;2022-07-09T22:10:03;96904.00;;;17.30
33267;BMP180;19638;49.080;11.896;2022-07-09T22:14:04;96891.00;;;17.30
33267;BMP180;19638;49.080;11.896;2022-07-09T22:18:06;96890.00;;;17.20
33267;BMP180;19638;49.080;11.896;2022-07-09T22:22:07;96894.00;;;17.20
33267;BMP180;19638;49.080;11.896;2022-07-09T22:26:07;96891.00;;;17.30
33267;BMP180;19638;49.080;11.896;2022-07-09T22:30:09;96885.00;;;17.20
33267;BMP180;19638;49.080;11.896;2022-07-09T22:34:11;96881.00;;;17.10
33267;BMP180;19638;49.080;11.896;2022-07-09T22:38:12;96880.00;;;17.10
33267;BMP180;19638;49.080;11.896;2022-07-09T22:42:13;96888.00;;;17.10
33267;BMP180;19638;49.080;11.896;2022-07-09T22:46:13;96876.00;;;17.10
33267;BMP180;19638;49.080;11.896;2022-07-09T22:50:15;96879.00;;;17.10
33267;BMP180;19638;49.080;11.896;2022-07-09T22:54:16;96870.00;;;17.10